createdAt,value
2022-11-05T00:00:59.223Z,965.76
2022-11-05T00:01:59.305Z,965.73
2022-11-05T00:02:59.136Z,965.77
2022-11-05T00:03:59.194Z,965.78
2022-11-05T00:04:59.300Z,965.77
2022-11-05T00:05:59.089Z,965.76
2022-11-05T00:06:59.095Z,965.83
2022-11-05T00:07:59.061Z,965.79
2022-11-05T00:08:59.030Z,965.81
2022-11-05T00:09:59.018Z,965.84
2022-11-05T00:10:59.268Z,965.83
2022-11-05T00:11:59.049Z,965.84
2022-11-05T00:12:58.973Z,965.85
2022-11-05T00:13:58.948Z,965.81
2022-11-05T00:14:58.943Z,965.84
2022-11-05T00:15:58.912Z,965.80
2022-11-05T00:16:59.122Z,965.78
2022-11-05T00:17:59.062Z,965.79
2022-11-05T00:18:58.954Z,965.79
2022-11-05T00:19:58.854Z,965.79
2022-11-05T00:20:58.837Z,965.76
2022-11-05T00:21:58.911Z,965.80
2022-11-05T00:22:58.798Z,965.77
2022-11-05T00:23:58.767Z,965.83
2022-11-05T00:24:58.765Z,965.88
2022-11-05T00:25:58.734Z,965.86
2022-11-05T00:26:58.765Z,965.89
2022-11-05T00:27:58.705Z,965.86
2022-11-05T00:28:58.735Z,965.90
2022-11-05T00:29:58.833Z,965.87
2022-11-05T00:30:58.653Z,965.92
2022-11-05T00:31:58.678Z,965.87
2022-11-05T00:32:58.638Z,965.88
2022-11-05T00:33:58.651Z,965.84
2022-11-05T00:34:58.583Z,965.83
2022-11-05T00:35:58.579Z,965.93
2022-11-05T00:36:58.588Z,965.95
2022-11-05T00:37:58.542Z,965.92
2022-11-05T00:38:58.518Z,965.95
2022-11-05T00:39:59.992Z,966.01
2022-11-05T00:40:58.722Z,965.95
2022-11-05T00:41:58.504Z,965.97
2022-11-05T00:42:58.461Z,965.99
2022-11-05T00:43:58.834Z,965.99
2022-11-05T00:44:58.553Z,965.97
2022-11-05T00:45:58.427Z,966.04
2022-11-05T00:46:59.929Z,966.03
2022-11-05T00:47:59.912Z,966.01
2022-11-05T00:48:58.361Z,966.01
2022-11-05T00:49:59.986Z,966.03
2022-11-05T00:50:58.324Z,966.03
2022-11-05T00:51:58.413Z,966.01
2022-11-05T00:52:58.287Z,966.02
2022-11-05T00:53:58.331Z,966.04
2022-11-05T00:54:58.251Z,965.97
2022-11-05T00:55:58.226Z,966.02
2022-11-05T00:57:03.417Z,966.02
2022-11-05T00:58:00.207Z,966.03
2022-11-05T00:58:58.182Z,966.04
2022-11-05T00:59:58.175Z,966.08
2022-11-05T01:00:58.151Z,966.06
2022-11-05T01:01:58.365Z,966.14
2022-11-05T01:02:59.884Z,966.15
2022-11-05T01:03:58.138Z,966.16
2022-11-05T01:04:58.285Z,966.19
2022-11-05T01:05:58.065Z,966.20
2022-11-05T01:06:58.091Z,966.20
2022-11-05T01:07:58.034Z,966.20
2022-11-05T01:08:58.019Z,966.20
2022-11-05T01:09:58.014Z,966.18
2022-11-05T01:10:57.983Z,966.23
2022-11-05T01:11:58.018Z,966.23
2022-11-05T01:12:57.957Z,966.23
2022-11-05T01:13:57.934Z,966.22
2022-11-05T01:14:58.036Z,966.18
2022-11-05T01:15:57.896Z,966.20
2022-11-05T01:16:57.911Z,966.20
2022-11-05T01:17:57.986Z,966.25
2022-11-05T01:18:57.848Z,966.22
2022-11-05T01:19:57.823Z,966.24
2022-11-05T01:20:57.812Z,966.23
2022-11-05T01:21:57.820Z,966.23
2022-11-05T01:22:57.805Z,966.22
2022-11-05T01:23:57.757Z,966.26
2022-11-05T01:24:57.738Z,966.20
2022-11-05T01:25:57.727Z,966.24
2022-11-05T01:26:57.755Z,966.26
2022-11-05T01:27:57.794Z,966.29
2022-11-05T01:28:57.719Z,966.21
2022-11-05T01:29:57.684Z,966.32
2022-11-05T01:30:57.770Z,966.32
2022-11-05T01:31:57.649Z,966.29
2022-11-05T01:32:57.618Z,966.31
2022-11-05T01:33:57.597Z,966.32
2022-11-05T01:34:57.573Z,966.34
2022-11-05T01:35:57.553Z,966.37
2022-11-05T01:36:57.565Z,966.39
2022-11-05T01:37:57.729Z,966.40
2022-11-05T01:38:57.500Z,966.46
2022-11-05T01:39:57.491Z,966.36
2022-11-05T01:40:57.496Z,966.43
2022-11-05T01:41:57.924Z,966.40
2022-11-05T01:42:57.442Z,966.41
2022-11-05T01:43:57.419Z,966.42
2022-11-05T01:44:57.416Z,966.43
2022-11-05T01:45:57.400Z,966.47
2022-11-05T01:46:57.401Z,966.45
2022-11-05T01:47:57.518Z,966.48
2022-11-05T01:49:02.749Z,966.50
2022-11-05T01:49:59.317Z,966.48
2022-11-05T01:50:57.303Z,966.47
2022-11-05T01:51:57.325Z,966.48
2022-11-05T01:52:57.265Z,966.45
2022-11-05T01:53:57.246Z,966.45
2022-11-05T01:54:57.227Z,966.50
2022-11-05T01:55:57.205Z,966.51
2022-11-05T01:56:57.224Z,966.53
2022-11-05T01:57:57.168Z,966.53
2022-11-05T01:58:57.151Z,966.55
2022-11-05T01:59:58.811Z,966.57
2022-11-05T02:00:57.118Z,966.58
2022-11-05T02:01:57.192Z,966.70
2022-11-05T02:02:57.161Z,966.59
2022-11-05T02:03:57.063Z,966.66
2022-11-05T02:04:57.046Z,966.69
2022-11-05T02:05:57.053Z,966.69
2022-11-05T02:06:57.062Z,966.65
2022-11-05T02:07:57.013Z,966.76
2022-11-05T02:08:57.025Z,966.67
2022-11-05T02:09:56.973Z,966.68
2022-11-05T02:10:56.946Z,966.70
2022-11-05T02:11:56.959Z,966.68
2022-11-05T02:12:56.907Z,966.69
2022-11-05T02:13:56.896Z,966.66
2022-11-05T02:14:56.872Z,966.64
2022-11-05T02:15:56.938Z,966.70
2022-11-05T02:16:57.132Z,966.69
2022-11-05T02:17:56.828Z,966.65
2022-11-05T02:18:56.806Z,966.70
2022-11-05T02:19:57.145Z,966.67
2022-11-05T02:20:56.845Z,966.77
2022-11-05T02:21:57.493Z,966.73
2022-11-05T02:22:57.037Z,966.76
2022-11-05T02:23:56.730Z,966.73
2022-11-05T02:24:56.739Z,966.75
2022-11-05T02:25:56.679Z,966.76
2022-11-05T02:26:56.716Z,966.75
2022-11-05T02:27:56.655Z,966.76
2022-11-05T02:28:56.810Z,966.78
2022-11-05T02:29:56.696Z,966.73
2022-11-05T02:30:56.604Z,966.79
2022-11-05T02:31:56.615Z,966.78
2022-11-05T02:32:56.697Z,966.77
2022-11-05T02:33:56.544Z,966.77
2022-11-05T02:34:56.544Z,966.80
2022-11-05T02:35:57.048Z,966.79
2022-11-05T02:36:56.626Z,966.74
2022-11-05T02:37:56.473Z,966.77
2022-11-05T02:38:56.458Z,966.80
2022-11-05T02:39:56.467Z,966.81
2022-11-05T02:40:56.429Z,966.76
2022-11-05T02:41:59.287Z,966.75
2022-11-05T02:42:58.818Z,966.78
2022-11-05T02:43:56.393Z,966.77
2022-11-05T02:44:56.354Z,966.80
2022-11-05T02:45:56.520Z,966.83
2022-11-05T02:46:56.350Z,966.84
2022-11-05T02:47:56.376Z,966.79
2022-11-05T02:48:56.299Z,966.83
2022-11-05T02:49:56.307Z,966.81
2022-11-05T02:50:56.253Z,966.84
2022-11-05T02:51:56.265Z,966.83
2022-11-05T02:52:56.224Z,966.85
2022-11-05T02:53:56.204Z,966.84
2022-11-05T02:54:56.183Z,966.85
2022-11-05T02:55:56.166Z,966.85
2022-11-05T02:56:56.189Z,966.86
2022-11-05T02:57:56.129Z,966.90
2022-11-05T02:58:56.123Z,966.87
2022-11-05T02:59:56.099Z,966.82
2022-11-05T03:00:56.099Z,966.85
2022-11-05T03:01:56.259Z,966.87
2022-11-05T03:02:56.133Z,966.84
2022-11-05T03:03:56.036Z,966.90
2022-11-05T03:04:56.020Z,966.85
2022-11-05T03:05:56.003Z,966.86
2022-11-05T03:06:55.984Z,966.90
2022-11-05T03:07:56.006Z,966.93
2022-11-05T03:08:55.968Z,966.91
2022-11-05T03:09:55.942Z,966.83
2022-11-05T03:10:55.917Z,966.86
2022-11-05T03:11:55.934Z,966.87
2022-11-05T03:12:55.875Z,966.86
2022-11-05T03:13:55.878Z,966.95
2022-11-05T03:14:55.842Z,966.96
2022-11-05T03:15:55.838Z,966.91
2022-11-05T03:16:55.806Z,966.99
2022-11-05T03:17:55.824Z,966.99
2022-11-05T03:18:55.770Z,966.96
2022-11-05T03:19:55.780Z,966.98
2022-11-05T03:20:55.739Z,967.01
2022-11-05T03:21:55.767Z,967.00
2022-11-05T03:22:55.900Z,966.96
2022-11-05T03:23:55.690Z,966.97
2022-11-05T03:24:55.675Z,967.04
2022-11-05T03:25:55.658Z,966.95
2022-11-05T03:26:55.636Z,967.03
2022-11-05T03:27:55.645Z,967.03
2022-11-05T03:28:55.603Z,967.04
2022-11-05T03:29:55.584Z,967.06
2022-11-05T03:30:55.565Z,967.04
2022-11-05T03:31:55.544Z,967.04
2022-11-05T03:32:55.555Z,967.04
2022-11-05T03:33:55.506Z,967.02
2022-11-05T03:34:55.488Z,967.00
2022-11-05T03:35:55.476Z,966.98
2022-11-05T03:36:55.457Z,967.06
2022-11-05T03:37:55.481Z,967.03
2022-11-05T03:38:55.443Z,967.07
2022-11-05T03:39:55.405Z,967.03
2022-11-05T03:40:55.644Z,967.05
2022-11-05T03:41:55.370Z,967.04
2022-11-05T03:42:55.412Z,967.03
2022-11-05T03:43:55.342Z,967.02
2022-11-05T03:44:55.316Z,967.05
2022-11-05T03:45:56.314Z,967.04
2022-11-05T03:46:55.302Z,967.06
2022-11-05T03:47:55.306Z,967.14
2022-11-05T03:48:55.364Z,967.11
2022-11-05T03:49:55.230Z,967.13
2022-11-05T03:50:55.215Z,967.16
2022-11-05T03:51:55.198Z,967.14
2022-11-05T03:52:55.218Z,967.18
2022-11-05T03:53:55.596Z,967.17
2022-11-05T03:54:56.154Z,967.23
2022-11-05T03:55:55.125Z,967.16
2022-11-05T03:56:55.108Z,967.21
2022-11-05T03:57:55.137Z,967.22
2022-11-05T03:58:58.929Z,967.19
2022-11-05T03:59:56.053Z,967.25
2022-11-05T04:00:55.040Z,967.30
2022-11-05T04:01:55.222Z,967.30
2022-11-05T04:02:55.210Z,967.38
2022-11-05T04:03:54.995Z,967.35
2022-11-05T04:04:54.970Z,967.36
2022-11-05T04:05:54.960Z,967.34
2022-11-05T04:06:54.932Z,967.33
2022-11-05T04:07:54.946Z,967.39
2022-11-05T04:08:54.904Z,967.38
2022-11-05T04:09:54.888Z,967.40
2022-11-05T04:10:54.862Z,967.39
2022-11-05T04:11:54.847Z,967.47
2022-11-05T04:12:54.867Z,967.47
2022-11-05T04:13:55.418Z,967.50
2022-11-05T04:14:54.812Z,967.50
2022-11-05T04:15:54.784Z,967.52
2022-11-05T04:16:54.867Z,967.51
2022-11-05T04:17:54.855Z,967.55
2022-11-05T04:18:54.736Z,967.53
2022-11-05T04:19:54.722Z,967.58
2022-11-05T04:20:54.708Z,967.53
2022-11-05T04:21:54.676Z,967.60
2022-11-05T04:22:54.702Z,967.62
2022-11-05T04:23:54.656Z,967.62
2022-11-05T04:24:54.636Z,967.58
2022-11-05T04:25:54.609Z,967.64
2022-11-05T04:26:54.602Z,967.65
2022-11-05T04:27:54.599Z,967.67
2022-11-05T04:28:54.569Z,967.59
2022-11-05T04:29:54.571Z,967.68
2022-11-05T04:30:54.524Z,967.67
2022-11-05T04:31:54.534Z,967.68
2022-11-05T04:32:54.532Z,967.63
2022-11-05T04:33:54.468Z,967.66
2022-11-05T04:34:54.455Z,967.62
2022-11-05T04:35:54.463Z,967.66
2022-11-05T04:36:54.417Z,967.61
2022-11-05T04:37:54.431Z,967.65
2022-11-05T04:38:54.382Z,967.60
2022-11-05T04:39:54.375Z,967.65
2022-11-05T04:40:54.366Z,967.65
2022-11-05T04:41:54.420Z,967.60
2022-11-05T04:42:54.348Z,967.60
2022-11-05T04:43:54.312Z,967.58
2022-11-05T04:44:54.297Z,967.59
2022-11-05T04:45:54.278Z,967.59
2022-11-05T04:46:54.271Z,967.63
2022-11-05T04:47:54.268Z,967.63
2022-11-05T04:48:54.266Z,967.64
2022-11-05T04:49:54.192Z,967.64
2022-11-05T04:50:54.196Z,967.64
2022-11-05T04:51:54.172Z,967.61
2022-11-05T04:52:54.183Z,967.63
2022-11-05T04:53:54.132Z,967.62
2022-11-05T04:54:54.121Z,967.65
2022-11-05T04:55:54.096Z,967.68
2022-11-05T04:56:54.082Z,967.71
2022-11-05T04:57:54.088Z,967.68
2022-11-05T04:58:54.040Z,967.64
2022-11-05T04:59:54.032Z,967.75
2022-11-05T05:00:54.081Z,967.76
2022-11-05T05:01:54.019Z,967.74
2022-11-05T05:02:54.020Z,967.80
2022-11-05T05:03:53.974Z,967.75
2022-11-05T05:04:53.935Z,967.79
2022-11-05T05:05:54.230Z,967.76
2022-11-05T05:06:54.907Z,967.81
2022-11-05T05:07:53.919Z,967.81
2022-11-05T05:08:53.870Z,967.84
2022-11-05T05:09:53.843Z,967.88
2022-11-05T05:10:53.837Z,967.87
2022-11-05T05:11:53.826Z,967.92
2022-11-05T05:12:53.828Z,967.91
2022-11-05T05:13:53.787Z,967.93
2022-11-05T05:14:53.764Z,967.88
2022-11-05T05:15:53.748Z,967.89
2022-11-05T05:16:53.719Z,967.87
2022-11-05T05:17:53.733Z,967.85
2022-11-05T05:18:53.696Z,967.94
2022-11-05T05:19:53.685Z,967.96
2022-11-05T05:20:53.662Z,967.93
2022-11-05T05:21:53.637Z,967.95
2022-11-05T05:22:53.649Z,967.96
2022-11-05T05:23:53.605Z,967.93
2022-11-05T05:24:53.591Z,967.94
2022-11-05T05:25:53.563Z,968.03
2022-11-05T05:26:53.568Z,967.91
2022-11-05T05:27:53.526Z,968.03
2022-11-05T05:28:53.529Z,968.07
2022-11-05T05:29:53.499Z,968.03
2022-11-05T05:30:58.502Z,968.00
2022-11-05T05:31:55.511Z,968.02
2022-11-05T05:32:53.436Z,968.05
2022-11-05T05:33:54.430Z,968.06
2022-11-05T05:34:53.415Z,968.05
2022-11-05T05:35:53.400Z,967.99
2022-11-05T05:36:53.431Z,968.01
2022-11-05T05:37:53.350Z,968.05
2022-11-05T05:38:53.335Z,968.03
2022-11-05T05:39:53.311Z,968.08
2022-11-05T05:40:53.306Z,968.08
2022-11-05T05:41:53.314Z,968.03
2022-11-05T05:42:53.271Z,968.00
2022-11-05T05:43:53.354Z,968.07
2022-11-05T05:44:53.230Z,968.05
2022-11-05T05:45:53.200Z,968.04
2022-11-05T05:46:53.225Z,968.04
2022-11-05T05:47:53.191Z,968.05
2022-11-05T05:48:53.156Z,968.06
2022-11-05T05:49:53.138Z,968.02
2022-11-05T05:50:53.118Z,968.09
2022-11-05T05:51:53.143Z,968.06
2022-11-05T05:52:53.087Z,968.06
2022-11-05T05:54:31.723Z,968.10
2022-11-05T05:54:54.056Z,968.16
2022-11-05T05:55:53.055Z,968.12
2022-11-05T05:56:53.132Z,968.12
2022-11-05T05:57:53.030Z,968.15
2022-11-05T05:58:53.029Z,968.13
2022-11-05T05:59:52.979Z,968.18
2022-11-05T06:00:52.956Z,968.17
2022-11-05T06:01:53.061Z,968.22
2022-11-05T06:02:52.994Z,968.16
2022-11-05T06:03:52.916Z,968.18
2022-11-05T06:04:53.021Z,968.20
2022-11-05T06:05:52.870Z,968.24
2022-11-05T06:06:52.881Z,968.33
2022-11-05T06:07:52.831Z,968.23
2022-11-05T06:08:52.816Z,968.33
2022-11-05T06:09:52.799Z,968.31
2022-11-05T06:10:52.863Z,968.35
2022-11-05T06:11:52.788Z,968.38
2022-11-05T06:12:52.757Z,968.41
2022-11-05T06:13:52.729Z,968.35
2022-11-05T06:14:52.740Z,968.31
2022-11-05T06:15:52.692Z,968.29
2022-11-05T06:16:52.745Z,968.32
2022-11-05T06:17:52.648Z,968.34
2022-11-05T06:18:52.647Z,968.34
2022-11-05T06:19:52.618Z,968.42
2022-11-05T06:20:52.612Z,968.39
2022-11-05T06:21:52.619Z,968.51
2022-11-05T06:22:52.574Z,968.43
2022-11-05T06:23:52.580Z,968.45
2022-11-05T06:24:52.548Z,968.46
2022-11-05T06:25:52.521Z,968.49
2022-11-05T06:26:52.529Z,968.51
2022-11-05T06:27:52.494Z,968.48
2022-11-05T06:28:52.470Z,968.52
2022-11-05T06:29:52.446Z,968.50
2022-11-05T06:30:52.439Z,968.54
2022-11-05T06:31:52.453Z,968.55
2022-11-05T06:32:52.413Z,968.61
2022-11-05T06:33:52.396Z,968.61
2022-11-05T06:34:52.361Z,968.59
2022-11-05T06:35:52.358Z,968.63
2022-11-05T06:36:52.366Z,968.64
2022-11-05T06:37:52.318Z,968.70
2022-11-05T06:38:52.291Z,968.72
2022-11-05T06:39:52.281Z,968.75
2022-11-05T06:40:52.264Z,968.79
2022-11-05T06:42:16.781Z,968.77
2022-11-05T06:42:54.281Z,968.81
2022-11-05T06:43:52.221Z,968.75
2022-11-05T06:44:52.184Z,968.78
2022-11-05T06:45:52.181Z,968.80
2022-11-05T06:46:52.159Z,968.78
2022-11-05T06:47:52.367Z,968.85
2022-11-05T06:48:52.118Z,968.80
2022-11-05T06:49:52.101Z,968.85
2022-11-05T06:50:52.092Z,968.85
2022-11-05T06:51:52.066Z,968.84
2022-11-05T06:52:52.081Z,968.88
2022-11-05T06:53:52.087Z,968.84
2022-11-05T06:54:52.024Z,968.88
2022-11-05T06:55:52.005Z,968.82
2022-11-05T06:56:51.994Z,968.96
2022-11-05T06:57:52.160Z,968.90
2022-11-05T06:58:51.949Z,968.90
2022-11-05T06:59:55.723Z,968.94
2022-11-05T07:00:53.989Z,968.94
2022-11-05T07:01:52.017Z,968.97
2022-11-05T07:02:51.920Z,969.00
2022-11-05T07:03:51.864Z,969.01
2022-11-05T07:04:51.867Z,969.02
2022-11-05T07:05:51.818Z,968.97
2022-11-05T07:06:51.805Z,969.01
2022-11-05T07:07:51.825Z,969.07
2022-11-05T07:08:51.781Z,969.01
2022-11-05T07:09:51.772Z,969.00
2022-11-05T07:10:51.757Z,968.97
2022-11-05T07:11:51.738Z,969.03
2022-11-05T07:12:51.744Z,968.99
2022-11-05T07:13:51.860Z,968.89
2022-11-05T07:14:51.676Z,968.92
2022-11-05T07:15:51.697Z,968.91
2022-11-05T07:16:51.640Z,968.87
2022-11-05T07:17:51.648Z,968.80
2022-11-05T07:18:51.623Z,968.76
2022-11-05T07:19:51.594Z,968.87
2022-11-05T07:20:51.612Z,968.99
2022-11-05T07:21:51.559Z,968.92
2022-11-05T07:22:51.585Z,968.93
2022-11-05T07:23:51.514Z,969.07
2022-11-05T07:24:51.498Z,968.99
2022-11-05T07:25:51.493Z,968.99
2022-11-05T07:26:51.473Z,969.04
2022-11-05T07:27:51.491Z,969.05
2022-11-05T07:28:51.642Z,968.99
2022-11-05T07:29:51.483Z,969.05
2022-11-05T07:30:51.409Z,969.09
2022-11-05T07:31:51.604Z,969.12
2022-11-05T07:32:51.726Z,969.08
2022-11-05T07:33:51.356Z,969.23
2022-11-05T07:34:51.328Z,969.12
2022-11-05T07:35:51.332Z,969.11
2022-11-05T07:36:51.371Z,969.12
2022-11-05T07:37:51.306Z,969.14
2022-11-05T07:38:53.894Z,969.17
2022-11-05T07:39:52.237Z,969.11
2022-11-05T07:40:51.225Z,969.09
2022-11-05T07:41:51.216Z,969.14
2022-11-05T07:42:51.227Z,969.17
2022-11-05T07:43:51.164Z,969.15
2022-11-05T07:44:51.154Z,969.05
2022-11-05T07:45:51.271Z,969.15
2022-11-05T07:46:51.114Z,969.16
2022-11-05T07:47:51.127Z,969.23
2022-11-05T07:48:51.084Z,969.18
2022-11-05T07:49:51.073Z,969.34
2022-11-05T07:50:51.046Z,969.27
2022-11-05T07:51:51.034Z,969.36
2022-11-05T07:52:51.044Z,969.22
2022-11-05T07:53:51.137Z,969.28
2022-11-05T07:54:50.982Z,969.27
2022-11-05T07:55:51.299Z,969.27
2022-11-05T07:56:50.976Z,969.26
2022-11-05T07:57:50.956Z,969.37
2022-11-05T07:58:50.911Z,969.31
2022-11-05T07:59:50.894Z,969.37
2022-11-05T08:00:50.990Z,969.26
2022-11-05T08:01:51.049Z,969.32
2022-11-05T08:02:51.140Z,969.33
2022-11-05T08:03:50.839Z,969.38
2022-11-05T08:04:50.941Z,969.36
2022-11-05T08:05:50.801Z,969.28
2022-11-05T08:06:50.792Z,969.38
2022-11-05T08:07:51.077Z,969.23
2022-11-05T08:08:50.751Z,969.19
2022-11-05T08:09:50.730Z,969.11
2022-11-05T08:10:50.708Z,969.14
2022-11-05T08:11:53.042Z,969.21
2022-11-05T08:12:51.714Z,969.21
2022-11-05T08:13:50.896Z,969.27
2022-11-05T08:14:50.639Z,969.32
2022-11-05T08:15:50.639Z,969.37
2022-11-05T08:16:50.612Z,969.45
2022-11-05T08:17:50.626Z,969.39
2022-11-05T08:18:50.579Z,969.50
2022-11-05T08:19:50.571Z,969.39
2022-11-05T08:20:50.539Z,969.45
2022-11-05T08:21:50.527Z,969.48
2022-11-05T08:22:50.540Z,969.52
2022-11-05T08:23:50.491Z,969.45
2022-11-05T08:24:50.502Z,969.50
2022-11-05T08:25:50.456Z,969.52
2022-11-05T08:26:50.441Z,969.58
2022-11-05T08:27:50.465Z,969.57
2022-11-05T08:28:50.607Z,969.53
2022-11-05T08:29:50.536Z,969.54
2022-11-05T08:30:50.507Z,969.48
2022-11-05T08:31:50.360Z,969.60
2022-11-05T08:32:50.379Z,969.49
2022-11-05T08:33:50.326Z,969.44
2022-11-05T08:34:50.334Z,969.45
2022-11-05T08:35:50.495Z,969.45
2022-11-05T08:36:50.280Z,969.48
2022-11-05T08:37:50.295Z,969.47
2022-11-05T08:38:50.388Z,969.51
2022-11-05T08:39:50.246Z,969.45
2022-11-05T08:40:50.251Z,969.46
2022-11-05T08:41:50.213Z,969.47
2022-11-05T08:42:50.233Z,969.53
2022-11-05T08:43:50.329Z,969.55
2022-11-05T08:44:50.199Z,969.48
2022-11-05T08:45:50.153Z,969.55
2022-11-05T08:46:50.140Z,969.54
2022-11-05T08:47:50.141Z,969.55
2022-11-05T08:48:50.113Z,969.57
2022-11-05T08:49:50.074Z,969.64
2022-11-05T08:50:50.064Z,969.58
2022-11-05T08:51:50.038Z,969.59
2022-11-05T08:52:50.077Z,969.59
2022-11-05T08:53:50.097Z,969.53
2022-11-05T08:54:50.000Z,969.40
2022-11-05T08:55:50.027Z,969.49
2022-11-05T08:56:49.962Z,969.55
2022-11-05T08:57:49.976Z,969.64
2022-11-05T08:58:49.934Z,969.64
2022-11-05T08:59:49.977Z,969.71
2022-11-05T09:00:49.969Z,969.75
2022-11-05T09:01:49.965Z,969.72
2022-11-05T09:02:49.905Z,969.71
2022-11-05T09:03:49.859Z,969.76
2022-11-05T09:04:49.852Z,969.73
2022-11-05T09:05:49.819Z,969.80
2022-11-05T09:06:49.831Z,969.76
2022-11-05T09:07:49.823Z,969.75
2022-11-05T09:08:49.834Z,969.75
2022-11-05T09:09:49.762Z,969.71
2022-11-05T09:10:49.795Z,969.73
2022-11-05T09:12:11.087Z,969.75
2022-11-05T09:12:51.755Z,969.69
2022-11-05T09:13:49.710Z,969.65
2022-11-05T09:14:49.678Z,969.70
2022-11-05T09:15:49.675Z,969.81
2022-11-05T09:16:49.639Z,969.71
2022-11-05T09:17:49.823Z,969.69
2022-11-05T09:18:49.644Z,969.60
2022-11-05T09:19:49.597Z,969.59
2022-11-05T09:20:50.587Z,969.62
2022-11-05T09:21:49.559Z,969.64
2022-11-05T09:22:49.573Z,969.73
2022-11-05T09:23:49.618Z,969.77
2022-11-05T09:24:50.543Z,969.70
2022-11-05T09:25:49.497Z,969.58
2022-11-05T09:26:49.505Z,969.61
2022-11-05T09:27:49.510Z,969.70
2022-11-05T09:28:50.218Z,969.67
2022-11-05T09:29:49.435Z,969.64
2022-11-05T09:30:49.416Z,969.63
2022-11-05T09:31:49.419Z,969.73
2022-11-05T09:32:49.432Z,969.74
2022-11-05T09:33:49.388Z,969.71
2022-11-05T09:34:49.358Z,969.79
2022-11-05T09:35:49.346Z,969.80
2022-11-05T09:36:49.383Z,969.82
2022-11-05T09:37:49.353Z,969.72
2022-11-05T09:38:49.318Z,969.72
2022-11-05T09:39:49.286Z,969.67
2022-11-05T09:40:49.257Z,969.69
2022-11-05T09:41:49.258Z,969.70
2022-11-05T09:42:49.261Z,969.68
2022-11-05T09:43:49.216Z,969.72
2022-11-05T09:44:49.202Z,969.73
2022-11-05T09:45:49.192Z,969.78
2022-11-05T09:46:49.192Z,969.78
2022-11-05T09:47:49.181Z,969.85
2022-11-05T09:48:49.135Z,969.86
2022-11-05T09:49:49.138Z,969.85
2022-11-05T09:50:49.114Z,969.92
2022-11-05T09:51:49.100Z,969.92
2022-11-05T09:52:49.104Z,969.89
2022-11-05T09:53:49.062Z,969.91
2022-11-05T09:54:49.041Z,969.92
2022-11-05T09:55:49.024Z,969.82
2022-11-05T09:56:49.012Z,969.97
2022-11-05T09:57:49.038Z,970.00
2022-11-05T09:58:48.993Z,969.88
2022-11-05T09:59:48.970Z,969.77
2022-11-05T10:00:49.007Z,969.71
2022-11-05T10:01:49.057Z,969.85
2022-11-05T10:02:48.966Z,969.77
2022-11-05T10:03:48.924Z,969.76
2022-11-05T10:04:49.109Z,969.86
2022-11-05T10:05:48.987Z,969.75
2022-11-05T10:06:48.862Z,969.82
2022-11-05T10:07:48.878Z,969.99
2022-11-05T10:08:48.825Z,969.86
2022-11-05T10:09:48.831Z,969.86
2022-11-05T10:10:48.820Z,969.84
2022-11-05T10:11:48.779Z,970.05
2022-11-05T10:12:48.792Z,969.92
2022-11-05T10:13:48.758Z,969.81
2022-11-05T10:14:48.750Z,969.79
2022-11-05T10:15:48.721Z,969.86
2022-11-05T10:16:48.710Z,969.77
2022-11-05T10:17:48.714Z,969.82
2022-11-05T10:18:48.675Z,969.81
2022-11-05T10:19:48.654Z,969.84
2022-11-05T10:20:48.648Z,969.90
2022-11-05T10:22:50.627Z,969.94
2022-11-05T10:23:49.587Z,969.84
2022-11-05T10:24:48.580Z,969.94
2022-11-05T10:25:48.573Z,969.91
2022-11-05T10:26:48.553Z,969.92
2022-11-05T10:27:48.563Z,969.91
2022-11-05T10:28:48.581Z,969.93
2022-11-05T10:29:48.495Z,969.98
2022-11-05T10:30:48.476Z,970.08
2022-11-05T10:31:48.476Z,970.06
2022-11-05T10:32:48.479Z,970.05
2022-11-05T10:33:48.428Z,970.04
2022-11-05T10:34:48.424Z,969.94
2022-11-05T10:35:48.406Z,970.04
2022-11-05T10:36:48.401Z,970.10
2022-11-05T10:37:48.396Z,970.09
2022-11-05T10:38:48.364Z,970.01
2022-11-05T10:39:48.337Z,969.94
2022-11-05T10:40:48.312Z,970.12
2022-11-05T10:41:48.299Z,970.04
2022-11-05T10:42:48.302Z,970.12
2022-11-05T10:43:48.262Z,970.11
2022-11-05T10:44:48.245Z,969.93
2022-11-05T10:45:48.239Z,970.09
2022-11-05T10:46:48.214Z,970.20
2022-11-05T10:47:48.229Z,970.05
2022-11-05T10:48:48.180Z,970.09
2022-11-05T10:49:48.177Z,969.99
2022-11-05T10:50:48.152Z,970.10
2022-11-05T10:51:48.139Z,970.06
2022-11-05T10:52:48.144Z,969.82
2022-11-05T10:53:48.112Z,970.10
2022-11-05T10:54:48.085Z,970.07
2022-11-05T10:55:48.113Z,969.85
2022-11-05T10:56:48.061Z,969.95
2022-11-05T10:57:48.073Z,969.93
2022-11-05T10:58:48.043Z,969.89
2022-11-05T10:59:48.001Z,969.83
2022-11-05T11:00:48.197Z,969.88
2022-11-05T11:01:48.208Z,969.85
2022-11-05T11:02:47.981Z,969.93
2022-11-05T11:03:47.949Z,969.94
2022-11-05T11:04:47.919Z,969.92
2022-11-05T11:05:47.916Z,970.02
2022-11-05T11:06:47.882Z,969.98
2022-11-05T11:07:47.899Z,969.97
2022-11-05T11:08:47.850Z,969.95
2022-11-05T11:09:47.851Z,969.95
2022-11-05T11:10:47.818Z,970.03
2022-11-05T11:11:47.813Z,969.95
2022-11-05T11:12:47.819Z,969.95
2022-11-05T11:13:47.771Z,970.00
2022-11-05T11:14:47.756Z,969.99
2022-11-05T11:15:47.755Z,970.03
2022-11-05T11:16:47.721Z,969.97
2022-11-05T11:17:47.748Z,970.00
2022-11-05T11:18:47.705Z,969.97
2022-11-05T11:19:47.673Z,969.98
2022-11-05T11:20:47.669Z,970.03
2022-11-05T11:21:47.640Z,970.01
2022-11-05T11:22:47.671Z,970.04
2022-11-05T11:23:47.604Z,970.01
2022-11-05T11:24:47.594Z,970.08
2022-11-05T11:25:47.573Z,970.07
2022-11-05T11:26:47.559Z,970.14
2022-11-05T11:27:47.565Z,970.07
2022-11-05T11:28:47.517Z,970.11
2022-11-05T11:29:49.596Z,970.13
2022-11-05T11:30:48.480Z,970.18
2022-11-05T11:31:47.483Z,970.08
2022-11-05T11:32:47.464Z,970.09
2022-11-05T11:33:47.463Z,970.06
2022-11-05T11:34:47.466Z,970.04
2022-11-05T11:35:47.446Z,970.02
2022-11-05T11:36:47.383Z,970.08
2022-11-05T11:37:47.375Z,970.08
2022-11-05T11:38:47.448Z,970.03
2022-11-05T11:39:47.341Z,970.11
2022-11-05T11:40:47.344Z,970.07
2022-11-05T11:41:48.309Z,970.08
2022-11-05T11:42:47.316Z,970.08
2022-11-05T11:43:47.269Z,970.10
2022-11-05T11:44:47.397Z,970.12
2022-11-05T11:45:47.269Z,970.08
2022-11-05T11:46:48.160Z,970.07
2022-11-05T11:47:48.161Z,970.12
2022-11-05T11:48:47.313Z,970.10
2022-11-05T11:49:47.172Z,970.13
2022-11-05T11:50:47.157Z,970.09
2022-11-05T11:51:50.156Z,970.08
2022-11-05T11:52:48.154Z,970.08
2022-11-05T11:53:47.127Z,970.09
2022-11-05T11:54:47.095Z,970.05
2022-11-05T11:55:47.101Z,969.99
2022-11-05T11:56:47.155Z,970.01
2022-11-05T11:57:47.073Z,970.07
2022-11-05T11:58:47.026Z,970.06
2022-11-05T12:00:07.884Z,970.01
2022-11-05T12:00:49.011Z,970.07
2022-11-05T12:01:47.023Z,970.05
2022-11-05T12:02:47.024Z,970.04
2022-11-05T12:03:46.956Z,969.98
2022-11-05T12:04:46.949Z,969.96
2022-11-05T12:05:46.951Z,969.97
2022-11-05T12:06:46.906Z,969.97
2022-11-05T12:07:46.952Z,969.98
2022-11-05T12:08:49.492Z,969.87
2022-11-05T12:09:47.866Z,969.95
2022-11-05T12:10:46.853Z,969.97
2022-11-05T12:11:46.863Z,969.96
2022-11-05T12:12:46.822Z,969.93
2022-11-05T12:13:46.826Z,969.88
2022-11-05T12:14:46.940Z,969.91
2022-11-05T12:15:46.746Z,969.90
2022-11-05T12:16:46.738Z,969.86
2022-11-05T12:17:46.744Z,969.89
2022-11-05T12:18:46.739Z,969.92
2022-11-05T12:19:46.798Z,969.99
2022-11-05T12:20:48.356Z,969.96
2022-11-05T12:21:52.909Z,969.89
2022-11-05T12:22:48.664Z,969.93
2022-11-05T12:23:46.630Z,969.96
2022-11-05T12:24:46.606Z,969.93
2022-11-05T12:25:46.590Z,969.90
2022-11-05T12:26:46.589Z,969.90
2022-11-05T12:27:46.590Z,969.89
2022-11-05T12:29:16.546Z,969.86
2022-11-05T12:29:48.530Z,969.81